Time;durP1;ratioP1;P1;durP2;ratioP2;P2;SDS_P1;SDS_P2;PMS_P1;PMS_P2;Temp;Humidity;BMP_temperature;BMP_pressure;BME280_temperature;BME280_humidity;BME280_pressure;Samples;Min_cycle;Max_cycle;Signal;HPM_P1;HPM_P2
2022/04/15 00:00:39;;;;;;;;;;;14.00;99.90;;;12.92;100.00;96022.75;10543982;28;2773;-72
2022/04/15 00:05:41;;;;;;;;;;;13.90;99.90;;;12.82;100.00;96014.72;10564388;28;1469;-72
2022/04/15 00:10:45;;;;;;;;;;;13.90;99.90;;;12.61;100.00;96016.78;10543525;28;1538;-72
2022/04/15 00:15:48;;;;;;;;;;;13.60;99.90;;;12.37;100.00;96020.16;10561040;28;1457;-73
2022/04/15 00:20:52;;;;;;;;;;;13.40;99.90;;;12.23;100.00;96039.91;10543158;28;1918;-72
2022/04/15 00:25:55;;;;;;;;;;;13.20;99.90;;;12.20;100.00;96043.94;10546826;28;1691;-72
2022/04/15 00:30:59;;;;;;;;;;;13.10;99.90;;;12.14;100.00;96045.06;10541518;28;1689;-72
2022/04/15 00:36:02;;;;;;;;;;;13.00;99.90;;;12.21;100.00;96050.94;10553540;28;2185;-72
2022/04/15 00:41:05;;;;;;;;;;;12.90;99.90;;;12.01;100.00;96048.34;10548353;28;1926;-72
2022/04/15 00:46:09;;;;;;;;;;;12.90;99.90;;;11.98;100.00;96051.59;10552141;28;1943;-73
2022/04/15 00:51:12;;;;;;;;;;;12.90;99.90;;;12.02;100.00;96063.44;10556733;28;1875;-73
2022/04/15 00:56:15;;;;;;;;;;;12.80;99.90;;;12.03;100.00;96076.66;10520659;28;1830;-72
2022/04/15 01:01:18;;;;;;;;;;;12.90;99.90;;;11.97;100.00;96082.34;10534199;28;1914;-72
2022/04/15 01:06:21;;;;;;;;;;;12.80;99.90;;;11.95;100.00;96060.22;10534569;28;1925;-72
2022/04/15 01:11:25;;;;;;;;;;;12.80;99.90;;;11.96;100.00;96038.41;10530072;28;1954;-73
2022/04/15 01:16:37;;;;;;;;;;;12.80;99.90;;;11.99;100.00;96064.00;10510446;28;1986;-72
2022/04/15 01:21:41;;;;;;;;;;;12.80;99.90;;;12.02;100.00;96064.22;10512798;28;1914;-73
2022/04/15 01:26:45;;;;;;;;;;;12.80;99.90;;;11.98;100.00;96067.78;10517288;28;1856;-72
2022/04/15 01:31:49;;;;;;;;;;;12.70;99.90;;;12.01;100.00;96068.00;10529585;28;1815;-72
2022/04/15 01:36:53;;;;;;;;;;;12.70;99.90;;;12.02;100.00;96061.53;10530398;28;1895;-73
2022/04/15 01:41:56;;;;;;;;;;;12.80;99.90;;;11.99;100.00;96054.03;10533351;28;1974;-74
2022/04/15 01:46:59;;;;;;;;;;;12.80;99.90;;;12.01;100.00;96072.59;10513725;28;1971;-73
2022/04/15 01:52:02;;;;;;;;;;;12.80;99.90;;;11.98;100.00;96071.28;10533030;28;1949;-71
2022/04/15 01:57:05;;;;;;;;;;;12.80;99.90;;;11.97;100.00;96063.47;10533235;28;2412;-73
2022/04/15 02:02:07;;;;;;;;;;;12.80;99.90;;;11.98;100.00;96057.00;10529441;28;1981;-73
2022/04/15 02:07:10;;;;;;;;;;;12.80;99.90;;;12.02;100.00;96068.81;10521360;28;1975;-72
2022/04/15 02:12:13;;;;;;;;;;;12.80;99.90;;;11.99;100.00;96069.38;10531600;28;2119;-72
2022/04/15 02:17:17;;;;;;;;;;;12.80;99.90;;;12.02;100.00;96077.72;10522418;28;1749;-72
2022/04/15 02:22:20;;;;;;;;;;;13.30;99.90;;;12.07;100.00;96082.28;10529909;28;2195;-72
2022/04/15 02:27:22;;;;;;;;;;;12.80;99.90;;;11.99;100.00;96080.16;10528063;28;1795;-73
2022/04/15 02:32:25;;;;;;;;;;;12.90;99.90;;;12.07;100.00;96082.28;10524739;28;1750;-73
2022/04/15 02:37:29;;;;;;;;;;;12.80;99.90;;;12.13;100.00;96092.75;10508169;28;2052;-73
2022/04/15 02:42:31;;;;;;;;;;;12.80;99.90;;;12.16;100.00;96099.50;10530085;28;1922;-73
2022/04/15 02:47:34;;;;;;;;;;;12.90;99.90;;;12.13;100.00;96092.75;10510178;28;1752;-72
2022/04/15 02:52:38;;;;;;;;;;;12.90;99.90;;;12.02;100.00;96093.88;10529814;28;1507;-73
2022/04/15 02:57:41;;;;;;;;;;;12.90;99.90;;;12.00;100.00;96103.31;10526041;28;1551;-72
2022/04/15 03:02:43;;;;;;;;;;;12.80;99.90;;;11.97;100.00;96104.69;10527182;28;1977;-72
2022/04/15 03:07:46;;;;;;;;;;;12.70;99.90;;;11.99;100.00;96101.72;10507792;28;1484;-72
2022/04/15 03:12:49;;;;;;;;;;;12.80;99.90;;;12.00;100.00;96108.72;10518432;28;1487;-72
2022/04/15 03:17:52;;;;;;;;;;;12.80;99.90;;;11.90;100.00;96099.59;10526639;28;1695;-72
2022/04/15 03:22:55;;;;;;;;;;;12.80;99.90;;;11.93;100.00;96100.13;10510408;28;1955;-72
2022/04/15 03:28:00;;;;;;;;;;;12.80;99.90;;;11.87;100.00;96104.69;10527005;28;1964;-73
2022/04/15 03:33:03;;;;;;;;;;;12.70;99.90;;;11.87;100.00;96102.81;10527516;28;1413;-73
2022/04/15 03:38:07;;;;;;;;;;;12.70;99.90;;;11.87;100.00;96110.09;10528017;28;1452;-72
2022/04/15 03:43:10;;;;;;;;;;;12.70;99.90;;;11.95;100.00;96104.13;10504974;28;1985;-73
2022/04/15 03:48:12;;;;;;;;;;;12.70;99.90;;;11.90;100.00;96099.59;10525413;28;1911;-73
2022/04/15 03:53:15;;;;;;;;;;;12.70;99.90;;;11.92;100.00;96095.81;10511042;28;1495;-74
2022/04/15 03:58:18;;;;;;;;;;;12.70;99.90;;;12.01;100.00;96086.06;10528902;22;2285;-81
2022/04/15 04:03:21;;;;;;;;;;;12.80;99.90;;;12.02;100.00;96106.53;10482918;28;1891;-79
2022/04/15 04:08:24;;;;;;;;;;;12.80;99.90;;;12.00;100.00;96111.41;10475903;28;1471;-80
2022/04/15 04:13:27;;;;;;;;;;;12.90;99.90;;;11.99;100.00;96107.91;10465056;28;1515;-80
2022/04/15 04:18:29;;;;;;;;;;;12.80;99.90;;;12.02;100.00;96106.53;10455853;28;1441;-80
2022/04/15 04:23:33;;;;;;;;;;;12.80;99.90;;;12.00;100.00;96120.28;10479975;28;1914;-79
2022/04/15 04:28:35;;;;;;;;;;;12.80;99.90;;;11.93;100.00;96118.97;10470808;28;1518;-81
2022/04/15 04:33:38;;;;;;;;;;;12.80;99.90;;;11.98;100.00;96118.97;10480114;28;1426;-83
2022/04/15 04:38:41;;;;;;;;;;;12.80;99.90;;;11.96;100.00;96123.78;10486365;28;1498;-81
2022/04/15 04:43:46;;;;;;;;;;;12.80;99.90;;;11.92;100.00;96130.84;10470443;28;1981;-81
2022/04/15 04:48:53;;;;;;;;;;;12.80;99.90;;;11.92;100.00;96136.22;10486470;28;1562;-80
2022/04/15 04:53:56;;;;;;;;;;;12.80;99.90;;;11.90;100.00;96131.13;10469568;28;1571;-81
2022/04/15 04:59:00;;;;;;;;;;;12.70;99.90;;;11.90;100.00;96147.28;10483266;28;1862;-78
2022/04/15 05:04:03;;;;;;;;;;;12.70;99.90;;;11.95;100.00;96139.16;10465801;28;1982;-79
2022/04/15 05:09:07;;;;;;;;;;;12.70;99.90;;;12.11;100.00;96148.03;10460513;28;1546;-79
2022/04/15 05:14:10;;;;;;;;;;;12.80;99.90;;;12.22;100.00;96154.19;10467073;28;1372;-79
2022/04/15 05:19:14;;;;;;;;;;;13.00;99.90;;;12.20;100.00;96148.25;10484776;28;1479;-81
2022/04/15 05:24:17;;;;;;;;;;;13.30;99.90;;;12.17;100.00;96157.72;10462191;28;1914;-81
2022/04/15 05:29:20;;;;;;;;;;;12.90;99.90;;;12.32;100.00;96157.66;10486458;28;1495;-80
2022/04/15 05:34:23;;;;;;;;;;;13.00;99.90;;;12.49;100.00;96165.41;10486656;28;1207;-81
2022/04/15 05:39:26;;;;;;;;;;;13.20;99.90;;;12.56;100.00;96170.50;10460156;28;1685;-80
2022/04/15 05:44:29;;;;;;;;;;;13.20;99.90;;;12.55;100.00;96168.91;10475619;28;1922;-81
2022/04/15 05:49:34;;;;;;;;;;;13.30;99.90;;;12.68;100.00;96174.50;10481727;28;1550;-80
2022/04/15 05:54:43;;;;;;;;;;;13.30;99.90;;;12.56;100.00;96168.63;10465143;28;1559;-81
2022/04/15 05:59:45;;;;;;;;;;;13.30;99.90;;;12.48;100.00;96181.88;10475377;28;1542;-79
2022/04/15 06:04:49;;;;;;;;;;;13.30;99.90;;;12.62;100.00;96181.00;10489158;28;1901;-80
2022/04/15 06:09:52;;;;;;;;;;;13.40;99.90;;;12.62;100.00;96185.59;10484419;28;1535;-80
2022/04/15 06:14:55;;;;;;;;;;;13.30;99.90;;;12.46;100.00;96182.13;10485366;28;1523;-80
2022/04/15 06:19:59;;;;;;;;;;;13.30;99.90;;;12.46;100.00;96192.91;10478346;28;1456;-80
2022/04/15 06:25:02;;;;;;;;;;;13.20;99.90;;;12.45;100.00;96192.09;10480957;28;1883;-80
2022/04/15 06:30:05;;;;;;;;;;;13.20;99.90;;;12.57;100.00;96191.00;10467420;28;1589;-80
2022/04/15 06:35:07;;;;;;;;;;;13.20;99.90;;;12.66;100.00;96195.56;10457833;28;1638;-80
2022/04/15 06:40:10;;;;;;;;;;;13.30;99.90;;;12.46;100.00;96198.31;10478961;28;1504;-80
2022/04/15 06:45:14;;;;;;;;;;;13.30;99.90;;;12.50;100.00;96194.00;10456472;28;1973;-80
2022/04/15 06:50:17;;;;;;;;;;;13.30;99.90;;;12.70;100.00;96206.59;10492024;28;1518;-80
2022/04/15 06:55:20;;;;;;;;;;;13.40;99.90;;;12.64;100.00;96200.41;10464900;28;1535;-80
2022/04/15 07:00:23;;;;;;;;;;;13.40;99.90;;;12.66;100.00;96208.22;10495180;28;1495;-79
2022/04/15 07:05:27;;;;;;;;;;;13.50;99.90;;;12.64;100.00;96210.38;10495867;28;1895;-79
2022/04/15 07:10:39;;;;;;;;;;;13.40;99.90;;;12.65;100.00;96207.41;10468042;28;1526;-81
2022/04/15 07:15:42;;;;;;;;;;;13.40;99.90;;;12.55;100.00;96212.03;10471839;28;1531;-82
2022/04/15 07:20:56;;;;;;;;;;;13.30;99.90;;;12.74;100.00;96213.06;10465134;28;1558;-82
2022/04/15 07:26:00;;;;;;;;;;;13.40;99.90;;;12.93;100.00;96215.94;10461557;28;2253;-82
2022/04/15 07:31:03;;;;;;;;;;;13.50;99.90;;;12.76;100.00;96224.38;10463326;28;1522;-81
2022/04/15 07:36:31;;;;;;;;;;;13.60;99.90;;;12.87;100.00;96215.16;10459243;28;1714;-81
2022/04/15 07:41:29;;;;;;;;;;;13.70;99.90;;;13.02;100.00;96218.84;10464129;28;1578;-80
2022/04/15 07:46:32;;;;;;;;;;;13.80;99.90;;;13.33;100.00;96214.91;10464177;28;1913;-82
2022/04/15 07:51:35;;;;;;;;;;;13.90;99.90;;;13.25;100.00;96215.53;10499630;28;1472;-81
2022/04/15 07:56:38;;;;;;;;;;;14.00;99.90;;;13.96;100.00;96214.97;10466596;28;1568;-82
2022/04/15 08:01:43;;;;;;;;;;;14.40;99.90;;;14.11;98.94;96218.63;10480332;28;1562;-80
2022/04/15 08:06:58;;;;;;;;;;;14.60;99.90;;;14.42;97.24;96219.13;10469931;28;1918;-79
2022/04/15 08:12:01;;;;;;;;;;;14.80;99.90;;;14.34;98.50;96223.25;10482606;28;1543;-79
2022/04/15 08:17:07;;;;;;;;;;;14.90;99.90;;;14.77;96.50;96220.66;10505247;28;1523;-82
2022/04/15 08:22:12;;;;;;;;;;;15.20;99.90;;;15.46;90.20;96224.63;10500321;28;1403;-81
2022/04/15 08:27:15;;;;;;;;;;;15.70;99.90;;;15.25;90.61;96218.66;10526872;28;1953;-81
2022/04/15 08:32:18;;;;;;;;;;;15.90;99.90;;;15.32;91.82;96239.97;10491038;28;1464;-82
2022/04/15 08:37:21;;;;;;;;;;;16.00;99.90;;;15.62;88.80;96238.75;10493791;28;1888;-81
2022/04/15 08:42:24;;;;;;;;;;;16.10;99.90;;;15.72;86.28;96243.25;10483022;28;1497;-81
2022/04/15 08:47:28;;;;;;;;;;;16.20;99.90;;;16.06;89.67;96232.91;10462511;28;1921;-81
2022/04/15 08:52:31;;;;;;;;;;;16.30;99.90;;;16.14;81.99;96231.41;10464979;28;1524;-81
2022/04/15 08:57:34;;;;;;;;;;;16.90;99.90;;;15.33;84.48;96242.41;10484722;28;1463;-81
2022/04/15 09:02:37;;;;;;;;;;;16.50;99.90;;;16.37;81.67;96232.38;10486086;28;1526;-81
2022/04/15 09:07:49;;;;;;;;;;;16.60;99.90;;;16.52;79.84;96228.56;10468998;28;1914;-82
2022/04/15 09:12:53;;;;;;;;;;;17.00;99.90;;;16.32;75.21;96238.69;10476878;28;1571;-82
2022/04/15 09:18:00;;;;;;;;;;;17.00;99.90;;;16.74;70.41;96231.44;10466398;28;1660;-81
2022/04/15 09:23:03;;;;;;;;;;;17.10;99.90;;;16.84;71.22;96233.13;10472964;28;1949;-81
2022/04/15 09:28:06;;;;;;;;;;;17.10;99.90;;;16.39;65.47;96220.09;10461998;22;1818;-79
2022/04/15 09:33:14;;;;;;;;;;;17.10;99.90;;;16.65;62.45;96231.28;10386518;28;1755;-78
2022/04/15 09:38:26;;;;;;;;;;;17.30;99.90;;;16.68;57.81;96233.41;10409444;28;1492;-78
2022/04/15 09:43:29;;;;;;;;;;;17.40;99.90;;;16.26;62.76;96230.94;10414078;28;1915;-80
2022/04/15 09:48:32;;;;;;;;;;;17.30;99.90;;;16.29;59.76;96241.22;10417459;28;1527;-80
2022/04/15 09:53:35;;;;;;;;;;;16.90;99.90;;;16.63;52.86;96233.50;10409530;28;1531;-79
2022/04/15 09:58:39;;;;;;;;;;;17.00;99.90;;;16.74;53.22;96223.28;10414828;28;1484;-80
2022/04/15 10:03:42;;;;;;;;;;;17.20;99.90;;;16.88;54.48;96226.00;10409458;28;2025;-80
2022/04/15 10:08:45;;;;;;;;;;;17.40;99.90;;;16.46;55.26;96220.50;10397528;28;1962;-80
2022/04/15 10:13:48;;;;;;;;;;;17.30;99.90;;;16.41;54.93;96222.50;10410056;28;1515;-79
2022/04/15 10:18:57;;;;;;;;;;;17.10;99.90;;;16.51;53.89;96222.34;10391752;28;1682;-79
2022/04/15 10:24:08;;;;;;;;;;;17.20;99.90;;;16.89;55.75;96214.84;10401516;28;1910;-80
2022/04/15 10:29:11;;;;;;;;;;;17.50;99.90;;;17.20;53.80;96206.84;10388508;28;1468;-79
2022/04/15 10:34:19;;;;;;;;;;;17.80;99.90;;;18.10;50.51;96198.78;10407078;28;1511;-80
2022/04/15 10:39:23;;;;;;;;;;;18.10;99.90;;;18.36;49.42;96197.00;10395117;28;1545;-80
2022/04/15 10:44:27;;;;;;;;;;;;;;;18.49;49.05;96205.38;10421453;28;1951;-81
2022/04/15 10:49:31;;;;;;;;;;;19.20;99.90;;;18.17;48.21;96206.50;10418442;28;1733;-81
2022/04/15 10:54:34;;;;;;;;;;;19.10;99.90;;;17.70;50.64;96204.09;10424368;28;1476;-80
2022/04/15 11:04:57;;;;;;;;;;;18.70;99.90;;;17.86;48.51;96201.81;10417537;28;1883;-81
2022/04/15 11:10:03;;;;;;;;;;;18.60;99.90;;;18.06;48.44;96195.84;10426442;28;1586;-80
2022/04/15 11:15:07;;;;;;;;;;;18.80;99.90;;;18.83;46.33;96186.50;10403777;28;1567;-80
2022/04/15 11:20:12;;;;;;;;;;;19.30;99.90;;;18.29;47.96;96184.97;10404108;28;1622;-79
2022/04/15 11:25:16;;;;;;;;;;;19.20;99.90;;;18.25;48.05;96187.47;10378227;28;1913;-81
2022/04/15 11:30:20;;;;;;;;;;;19.10;99.90;;;17.94;46.02;96187.50;10413022;28;1409;-80
2022/04/15 11:35:23;;;;;;;;;;;19.00;99.90;;;17.51;47.76;96179.00;10403724;28;1559;-79
2022/04/15 11:40:28;;;;;;;;;;;18.40;99.90;;;17.98;47.30;96168.63;10384011;28;1655;-80
2022/04/15 11:45:31;;;;;;;;;;;18.60;99.90;;;18.50;45.40;96177.84;10398140;28;1981;-79
2022/04/15 11:50:34;;;;;;;;;;;19.00;99.90;;;18.33;45.56;96172.34;10392338;28;1544;-81
2022/04/15 11:55:36;;;;;;;;;;;19.10;99.90;;;18.59;46.08;96169.72;10381035;28;1621;-80
2022/04/15 12:00:39;;;;;;;;;;;19.20;99.90;;;18.59;47.01;96167.78;10412474;28;1586;-79
2022/04/15 12:05:42;;;;;;;;;;;19.40;99.90;;;17.83;45.04;96158.94;10401852;28;1975;-80
2022/04/15 12:10:46;;;;;;;;;;;19.30;99.90;;;17.49;47.28;96168.41;10424334;28;1563;-79
2022/04/15 12:15:52;;;;;;;;;;;18.60;99.90;;;17.77;47.25;96157.47;10403805;28;1435;-81
2022/04/15 12:21:00;;;;;;;;;;;18.60;99.90;;;18.44;43.34;96160.03;10407254;28;1546;-81
2022/04/15 12:26:10;;;;;;;;;;;19.00;99.90;;;18.97;42.54;96153.69;10415264;28;1883;-81
2022/04/15 12:31:13;;;;;;;;;;;19.50;99.90;;;19.36;41.00;96143.78;10398959;28;1590;-80
2022/04/15 12:36:19;;;;;;;;;;;20.00;99.90;;;19.25;42.99;96137.03;10402190;28;1504;-80
2022/04/15 12:41:25;;;;;;;;;;;20.30;99.90;;;19.65;42.71;96130.28;10421411;28;1451;-80
2022/04/15 12:46:45;;;;;;;;;;;20.30;99.90;;;20.62;38.36;96118.00;10402635;28;1956;-80
2022/04/15 12:51:48;;;;;;;;;;;21.00;99.90;;;20.41;38.13;96110.50;10394406;28;1551;-78
2022/04/15 12:56:56;;;;;;;;;;;20.90;99.90;;;20.00;39.33;96102.97;10387862;28;1476;-80
2022/04/15 13:02:11;;;;;;;;;;;20.80;99.90;;;20.36;38.05;96101.69;10417795;28;1842;-79
2022/04/15 13:07:15;;;;;;;;;;;20.90;99.90;;;20.51;37.85;96085.59;10399436;28;1882;-80
2022/04/15 13:12:19;;;;;;;;;;;21.00;99.90;;;21.16;37.78;96088.84;10397758;28;1517;-80
2022/04/15 13:17:27;;;;;;;;;;;;;;;20.91;37.91;96087.91;10414308;28;1482;-79
2022/04/15 13:22:30;;;;;;;;;;;;;;;21.48;36.99;96083.78;10418536;28;1459;-78
2022/04/15 13:27:37;;;;;;;;;;;;;;;21.09;37.29;96083.13;10412302;28;1962;-80
2022/04/15 13:32:40;;;;;;;;;;;;;;;20.17;39.54;96080.28;10431470;28;1626;-80
2022/04/15 13:37:44;;;;;;;;;;;;;;;19.33;41.89;96087.97;10411143;28;1445;-79
2022/04/15 13:42:48;;;;;;;;;;;;;;;18.82;42.03;96084.09;10422224;28;1522;-79
2022/04/15 13:47:52;;;;;;;;;;;;;;;18.16;42.67;96077.81;10399047;28;1898;-80
2022/04/15 13:58:20;;;;;;;;;;;18.90;99.90;;;18.49;44.04;96082.88;10418295;28;1523;-78
2022/04/15 14:03:23;;;;;;;;;;;19.00;99.90;;;18.71;43.05;96074.66;10406863;28;1494;-79
2022/04/15 14:08:27;;;;;;;;;;;19.40;99.90;;;18.60;44.01;96076.84;10381666;28;2005;-79
2022/04/15 14:13:31;;;;;;;;;;;19.40;99.90;;;18.77;44.47;96076.09;10385597;28;1574;-78
2022/04/15 14:18:34;;;;;;;;;;;19.40;99.90;;;19.23;42.45;96074.66;10405540;28;1563;-79
2022/04/15 14:23:39;;;;;;;;;;;19.60;99.90;;;19.87;41.64;96069.28;10379301;28;1498;-77
2022/04/15 14:28:42;;;;;;;;;;;20.20;99.90;;;19.93;39.80;96070.72;10371615;28;1910;-79
2022/04/15 14:33:45;;;;;;;;;;;20.60;99.90;;;19.52;40.74;96070.47;10399769;28;1518;-77
2022/04/15 14:38:59;;;;;;;;;;;20.40;99.90;;;19.69;40.47;96071.25;10392874;28;1669;-78
2022/04/15 14:44:02;;;;;;;;;;;20.20;99.90;;;19.70;41.08;96066.59;10369339;28;1539;-80
2022/04/15 14:49:06;;;;;;;;;;;20.60;99.90;;;20.10;41.00;96052.66;10389915;28;1991;-79
2022/04/15 14:54:09;;;;;;;;;;;20.70;99.90;;;19.69;41.14;96065.81;10411993;28;1563;-79
2022/04/15 14:59:12;;;;;;;;;;;20.60;99.90;;;20.00;40.78;96059.31;10413806;28;1574;-79
2022/04/15 15:04:15;;;;;;;;;;;20.60;99.90;;;19.63;40.97;96055.41;10399355;28;1666;-78
2022/04/15 15:09:40;;;;;;;;;;;20.50;99.90;;;20.07;40.32;96045.94;10386063;28;1565;-79
2022/04/15 15:14:43;;;;;;;;;;;20.60;99.90;;;20.06;40.39;96054.47;10392754;28;1559;-80
2022/04/15 15:19:47;;;;;;;;;;;20.60;99.90;;;19.07;40.90;96052.53;10411676;28;1638;-79
2022/04/15 15:30:12;;;;;;;;;;;19.60;99.90;;;18.96;39.99;96045.00;10435679;23;1611;-71
2022/04/15 15:35:14;;;;;;;;;;;19.70;99.90;;;19.05;40.20;96045.81;10462497;28;1427;-69
2022/04/15 15:40:19;;;;;;;;;;;19.80;99.90;;;18.70;41.15;96050.44;10443028;28;1855;-71
2022/04/15 15:45:21;;;;;;;;;;;19.60;99.90;;;18.78;41.64;96057.84;10464089;28;1914;-70
2022/04/15 15:50:24;;;;;;;;;;;19.50;99.90;;;18.44;41.56;96058.53;10469402;28;1399;-70
2022/04/15 15:55:27;;;;;;;;;;;19.40;99.90;;;18.20;41.69;96035.28;10447190;28;1536;-70
2022/04/15 16:00:30;;;;;;;;;;;19.10;99.90;;;18.22;42.33;96041.19;10460635;28;1546;-72
2022/04/15 16:05:33;;;;;;;;;;;19.10;99.90;;;18.35;42.78;96048.44;10476228;22;2120;-80
2022/04/15 16:10:37;;;;;;;;;;;19.20;99.90;;;17.99;43.17;96050.53;10467256;28;1545;-80
2022/04/15 16:15:45;;;;;;;;;;;18.90;99.90;;;17.46;44.03;96056.81;10486994;28;1395;-80
2022/04/15 16:20:48;;;;;;;;;;;18.60;99.90;;;17.16;45.10;96059.16;10465208;22;2094;-73
2022/04/15 16:25:51;;;;;;;;;;;18.20;99.90;;;17.18;44.34;96056.94;10469912;28;1906;-72
2022/04/15 16:30:54;;;;;;;;;;;18.10;99.90;;;16.94;44.59;96064.59;10479624;28;1499;-72
2022/04/15 16:35:57;;;;;;;;;;;18.00;99.90;;;16.98;43.40;96063.63;10452173;28;1573;-73
2022/04/15 16:41:00;;;;;;;;;;;17.80;99.90;;;16.85;43.96;96053.63;10465848;28;1550;-72
2022/04/15 16:46:03;;;;;;;;;;;17.80;99.90;;;16.77;44.40;96061.72;10473253;28;1976;-74
2022/04/15 16:51:07;;;;;;;;;;;17.70;99.90;;;16.66;44.14;96067.31;10477062;28;1477;-73
2022/04/15 17:01:31;;;;;;;;;;;17.50;99.90;;;16.59;44.01;96060.72;10459250;28;1539;-73
2022/04/15 17:06:34;;;;;;;;;;;17.40;99.90;;;16.44;43.75;96080.84;10477649;28;1890;-73
2022/04/15 17:11:37;;;;;;;;;;;17.40;99.90;;;16.17;43.91;96078.94;10478522;28;1573;-73
2022/04/15 17:16:40;;;;;;;;;;;17.10;99.90;;;16.14;43.85;96088.47;10457484;28;1421;-72
2022/04/15 17:21:43;;;;;;;;;;;17.00;99.90;;;15.96;43.78;96086.66;10471839;28;1518;-71
2022/04/15 17:26:45;;;;;;;;;;;16.90;99.90;;;15.83;44.40;96090.16;10466000;28;2022;-73
2022/04/15 17:31:48;;;;;;;;;;;16.80;99.90;;;15.77;44.16;96094.06;10467510;28;1564;-70
2022/04/15 17:36:51;;;;;;;;;;;16.70;99.90;;;15.54;44.95;96102.03;10447045;28;1509;-72
2022/04/15 17:41:54;;;;;;;;;;;16.60;99.90;;;15.46;45.38;96110.00;10473582;28;1474;-72
2022/04/15 17:46:57;;;;;;;;;;;16.50;99.90;;;15.34;45.24;96107.78;10446818;28;1918;-73
2022/04/15 17:52:00;;;;;;;;;;;16.30;99.90;;;15.20;45.62;96112.31;10452825;28;1563;-71
2022/04/15 17:57:03;;;;;;;;;;;16.20;99.90;;;15.05;46.15;96121.47;10471276;28;1579;-72
2022/04/15 18:02:06;;;;;;;;;;;16.10;99.90;;;14.86;46.68;96118.78;10449609;28;1338;-72
2022/04/15 18:07:09;;;;;;;;;;;15.90;99.90;;;14.70;47.49;96131.72;10477150;28;1918;-71
2022/04/15 18:12:12;;;;;;;;;;;15.80;99.90;;;14.62;48.61;96142.38;10462622;28;1539;-72
2022/04/15 18:17:15;;;;;;;;;;;15.60;99.90;;;14.59;49.29;96144.56;10449925;28;1446;-73
2022/04/15 18:22:18;;;;;;;;;;;15.60;99.90;;;14.51;50.20;96145.22;10446781;28;1470;-72
2022/04/15 18:27:22;;;;;;;;;;;15.50;99.90;;;14.41;51.21;96161.53;10447421;28;1969;-72
2022/04/15 18:32:25;;;;;;;;;;;15.50;99.90;;;14.33;51.91;96170.28;10445199;28;1893;-71
2022/04/15 18:37:29;;;;;;;;;;;15.30;99.90;;;14.11;52.92;96172.66;10461454;28;1463;-72
2022/04/15 18:42:35;;;;;;;;;;;15.20;99.90;;;13.93;53.84;96180.44;10465771;28;1515;-72
2022/04/15 18:47:41;;;;;;;;;;;15.00;99.90;;;13.76;54.89;96174.63;10455119;28;1977;-72
2022/04/15 18:52:44;;;;;;;;;;;14.90;99.90;;;13.66;55.54;96180.91;10461501;28;1494;-72
2022/04/15 18:57:47;;;;;;;;;;;14.70;99.90;;;13.49;55.86;96185.94;10461489;28;1613;-72
2022/04/15 19:02:50;;;;;;;;;;;14.60;99.90;;;13.46;56.64;96184.59;10444068;28;1787;-73
2022/04/15 19:07:53;;;;;;;;;;;14.50;99.90;;;13.25;56.86;96197.44;10464241;28;1914;-72
2022/04/15 19:12:56;;;;;;;;;;;14.50;99.90;;;13.19;57.56;96192.31;10441859;28;1515;-73
2022/04/15 19:17:58;;;;;;;;;;;14.20;99.90;;;13.24;56.90;96193.13;10440604;28;1795;-73
2022/04/15 19:23:02;;;;;;;;;;;14.20;99.90;;;13.00;58.57;96205.63;10446298;28;1771;-72
2022/04/15 19:28:05;;;;;;;;;;;14.10;99.90;;;13.01;57.93;96206.44;10463214;28;1910;-72
2022/04/15 19:33:08;;;;;;;;;;;14.00;99.90;;;12.97;58.34;96223.19;10449619;28;1484;-71
2022/04/15 19:38:10;;;;;;;;;;;14.00;99.90;;;12.97;58.33;96215.09;10451894;28;2160;-72
2022/04/15 19:43:13;;;;;;;;;;;13.90;99.90;;;12.93;57.90;96224.84;10465925;28;1567;-72
2022/04/15 19:48:16;;;;;;;;;;;13.90;99.90;;;12.92;57.09;96223.22;10444694;28;1910;-70
2022/04/15 19:53:36;;;;;;;;;;;13.90;99.90;;;12.78;57.81;96241.06;10467299;28;1478;-72
2022/04/15 20:04:15;;;;;;;;;;;13.60;99.90;;;12.45;58.85;96251.44;10444793;28;1675;-71
2022/04/15 20:09:19;;;;;;;;;;;13.60;99.90;;;12.27;60.60;96267.38;10452409;28;1989;-72
2022/04/15 20:14:22;;;;;;;;;;;13.30;99.90;;;12.02;62.68;96270.91;10471914;28;1478;-72
2022/04/15 20:19:25;;;;;;;;;;;13.10;99.90;;;11.40;69.23;96288.88;10441146;28;2262;-73
2022/04/15 20:24:29;;;;;;;;;;;;;;;10.92;73.28;96296.25;10447855;28;1636;-72
2022/04/15 20:29:32;;;;;;;;;;;;;;;10.55;76.31;96304.38;10467236;28;1914;-72
2022/04/15 20:34:36;;;;;;;;;;;;;;;10.21;77.69;96309.25;10447198;28;1846;-72
2022/04/15 20:39:40;;;;;;;;;;;;;;;10.04;79.21;96317.44;10445711;28;1671;-72
2022/04/15 20:44:43;;;;;;;;;;;;;;;9.88;79.43;96326.44;10450666;28;1527;-72
2022/04/15 20:49:53;;;;;;;;;;;;;;;9.80;79.87;96343.84;10454829;28;1914;-72
2022/04/15 20:55:00;;;;;;;;;;;;;;;9.70;79.86;96349.91;10452339;28;1589;-72
2022/04/15 21:00:06;;;;;;;;;;;;;;;9.68;80.54;96353.94;10448039;28;1512;-71
2022/04/15 21:05:10;;;;;;;;;;;;;;;9.54;76.73;96363.41;10465254;28;1491;-72
2022/04/15 21:10:14;;;;;;;;;;;;;;;9.44;76.88;96358.78;10449023;28;2421;-72
2022/04/15 21:15:18;;;;;;;;;;;;;;;9.38;76.67;96360.56;10452420;28;1546;-71
2022/04/15 21:20:22;;;;;;;;;;;;;;;9.25;76.99;96365.53;10470907;28;1555;-70
2022/04/15 21:25:26;;;;;;;;;;;;;;;9.16;77.80;96374.03;10469004;28;1454;-71
2022/04/15 21:30:29;;;;;;;;;;;;;;;9.09;77.98;96378.72;10452551;28;1918;-72
2022/04/15 21:35:33;;;;;;;;;;;;;;;8.97;79.02;96382.59;10467488;28;1558;-72
2022/04/15 21:40:38;;;;;;;;;;;;;;;8.88;78.41;96382.22;10450824;28;1920;-71
2022/04/15 21:45:41;;;;;;;;;;;;;;;8.79;77.34;96391.75;10443435;28;1615;-71
2022/04/15 21:56:07;;;;;;;;;;;;;;;8.63;77.79;96383.47;10446132;28;1866;-71
2022/04/15 22:01:13;;;;;;;;;;;;;;;8.50;76.80;96399.91;10448563;28;1849;-72
2022/04/15 22:06:17;;;;;;;;;;;;;;;8.46;77.44;96395.28;10467711;28;1914;-72
2022/04/15 22:11:21;;;;;;;;;;;;;;;8.39;77.95;96400.78;10468309;28;1518;-72
2022/04/15 22:16:25;;;;;;;;;;;;;;;8.34;79.03;96408.75;10466126;28;1525;-70
2022/04/15 22:21:28;;;;;;;;;;;;;;;8.26;79.48;96414.47;10442695;28;1495;-72
2022/04/15 22:26:32;;;;;;;;;;;;;;;8.13;79.73;96418.28;10468623;28;1979;-72
2022/04/15 22:31:42;;;;;;;;;;;;;;;8.06;79.50;96423.81;10468655;22;1980;-74
2022/04/15 22:36:46;;;;;;;;;;;;;;;8.05;80.45;96427.53;10463922;28;1490;-72
2022/04/15 22:41:49;;;;;;;;;;;;;;;8.02;79.95;96432.56;10450221;28;1548;-72
2022/04/15 22:46:54;;;;;;;;;;;;;;;7.95;80.63;96427.38;10464731;28;1985;-72
2022/04/15 22:51:59;;;;;;;;;;;;;;;8.01;80.57;96433.59;10444364;28;1664;-72
2022/04/15 22:57:08;;;;;;;;;;;;;;;7.97;81.34;96441.31;10465588;28;1482;-72
2022/04/15 23:02:13;;;;;;;;;;;;;;;8.04;81.23;96441.16;10459941;28;1478;-72
2022/04/15 23:07:17;;;;;;;;;;;;;;;7.98;81.35;96448.28;10442899;28;1910;-72
2022/04/15 23:12:23;;;;;;;;;;;;;;;7.94;81.13;96447.13;10443824;28;1808;-74
2022/04/15 23:17:28;;;;;;;;;;;;;;;7.88;81.55;96452.66;10461231;28;1502;-73
2022/04/15 23:22:34;;;;;;;;;;;;;;;7.75;82.19;96454.56;10443310;28;1505;-73
2022/04/15 23:27:39;;;;;;;;;;;;;;;7.78;81.79;96447.94;10441392;28;1915;-72
2022/04/15 23:32:43;;;;;;;;;;;;;;;7.83;81.73;96451.53;10442872;28;1496;-73
2022/04/15 23:37:47;;;;;;;;;;;;;;;7.69;81.61;96454.69;10460559;28;1474;-73
2022/04/15 23:42:52;;;;;;;;;;;;;;;7.53;83.26;96449.06;10442166;28;1485;-74
2022/04/15 23:53:19;;;;;;;;;;;;;;;7.35;81.96;96459.91;10451056;28;1535;-74
2022/04/15 23:58:22;;;;;;;;;;;8.40;99.90;;;7.27;82.37;96447.72;10461939;28;1498;-72
